Time;durP1;ratioP1;P1;durP2;ratioP2;P2;SDS_P1;SDS_P2;PMS_P1;PMS_P2;Temp;Humidity;BMP_temperature;BMP_pressure;BME280_temperature;BME280_humidity;BME280_pressure;Samples;Min_cycle;Max_cycle;Signal;HPM_P1;HPM_P2
2022/01/20 00:02:23;;;;;;;479.88;245.52;;;-3.00;99.90;;;;;;5098013;28;20118;-80
2022/01/20 00:05:07;;;;;;;476.58;238.23;;;-3.00;99.90;;;;;;5098425;28;20040;-78
2022/01/20 00:07:45;;;;;;;410.65;196.40;;;-3.10;99.90;;;;;;5098618;28;20141;-77
2022/01/20 00:26:44;;;;;;;328.00;168.38;;;-3.20;99.90;;;;;;5097642;28;19923;-80
2022/01/20 00:29:20;;;;;;;342.25;176.75;;;-3.20;99.90;;;;;;5080773;28;20111;-78
2022/01/20 00:32:02;;;;;;;356.95;173.88;;;-3.20;99.90;;;;;;5097346;28;20139;-79
2022/01/20 00:34:53;;;;;;;362.23;175.50;;;-3.20;99.90;;;;;;5095465;28;20054;-78
2022/01/20 00:37:21;;;;;;;356.25;168.27;;;-3.20;99.90;;;;;;5095892;28;20048;-80
2022/01/20 00:39:49;;;;;;;365.40;175.32;;;-3.20;99.90;;;;;;5095969;28;20051;-79
2022/01/20 00:42:17;;;;;;;330.25;161.90;;;-3.20;99.90;;;;;;5112846;28;20074;-78
2022/01/20 00:44:45;;;;;;;320.77;151.85;;;-3.20;99.90;;;;;;5098100;28;20052;-80
2022/01/20 00:47:13;;;;;;;326.13;153.15;;;-3.20;99.90;;;;;;5096103;28;20083;-78
2022/01/20 00:49:41;;;;;;;355.75;155.60;;;-3.20;99.90;;;;;;5078322;28;20138;-77
2022/01/20 00:52:10;;;;;;;403.90;180.25;;;-3.20;99.90;;;;;;5097414;28;20079;-79
2022/01/20 00:54:39;;;;;;;447.58;200.70;;;-3.40;99.90;;;;;;5078605;28;20395;-78
2022/01/20 00:57:07;;;;;;;336.45;153.57;;;-3.40;99.90;;;;;;5097437;28;20050;-78
2022/01/20 00:59:35;;;;;;;280.90;126.43;;;-3.40;99.90;;;;;;5096978;28;20376;-77
2022/01/20 01:02:07;;;;;;;299.10;136.80;;;-3.30;99.90;;;;;;5078673;28;20130;-78
2022/01/20 01:04:35;;;;;;;340.48;152.10;;;-3.40;99.90;;;;;;5078884;28;20101;-79
2022/01/20 01:07:21;;;;;;;291.70;133.95;;;-3.50;99.90;;;;;;5079670;28;20130;-79
2022/01/20 01:09:50;;;;;;;304.83;137.02;;;-3.50;99.90;;;;;;5097403;28;20059;-79
2022/01/20 01:12:27;;;;;;;297.73;137.85;;;-3.60;99.90;;;;;;5079199;28;20048;-81
2022/01/20 01:14:54;;;;;;;317.20;140.73;;;-3.60;99.90;;;;;;5095967;28;20048;-81
2022/01/20 01:20:15;;;;;;;332.13;152.68;;;-3.50;99.90;;;;;;5077700;28;20550;-80
2022/01/20 01:22:43;;;;;;;343.90;161.30;;;-3.50;99.90;;;;;;5077502;28;20051;-79
2022/01/20 01:25:14;;;;;;;341.02;168.52;;;-3.50;99.90;;;;;;5077314;28;20048;-81
2022/01/20 01:27:44;;;;;;;329.48;165.57;;;-3.60;99.90;;;;;;5095210;28;20040;-81
2022/01/20 01:30:40;;;;;;;310.42;157.18;;;-3.70;99.90;;;;;;5094090;28;20461;-81
2022/01/20 01:33:08;;;;;;;326.13;162.30;;;-3.80;99.90;;;;;;5094705;28;20055;-81
2022/01/20 01:35:40;;;;;;;291.80;142.48;;;-3.80;99.90;;;;;;5095502;28;20375;-80
2022/01/20 01:38:37;;;;;;;241.88;121.63;;;-3.70;99.90;;;;;;5074454;28;20036;-80
2022/01/20 01:41:13;;;;;;;246.32;120.70;;;-3.60;99.90;;;;;;5081531;28;20070;-81
2022/01/20 01:43:43;;;;;;;214.63;107.68;;;-3.60;99.90;;;;;;5073931;28;20041;-81
2022/01/20 01:46:12;;;;;;;204.60;104.55;;;-3.60;99.90;;;;;;5086004;28;20048;-77
2022/01/20 01:48:41;;;;;;;247.45;123.78;;;-3.70;99.90;;;;;;5085992;28;20073;-79
2022/01/20 01:51:09;;;;;;;259.38;129.07;;;-3.70;99.90;;;;;;5082833;28;20048;-81
2022/01/20 01:53:38;;;;;;;244.05;123.18;;;-3.80;99.90;;;;;;5077670;28;20048;-80
2022/01/20 01:56:08;;;;;;;251.77;126.90;;;-3.80;99.90;;;;;;5072765;28;20037;-81
2022/01/20 01:58:38;;;;;;;214.27;105.88;;;-3.80;99.90;;;;;;5078631;28;20043;-81
2022/01/20 02:01:17;;;;;;;201.68;98.50;;;-3.80;99.90;;;;;;5094195;28;20048;-80
2022/01/20 02:03:56;;;;;;;193.32;97.80;;;-3.80;99.90;;;;;;5081313;28;20059;-80
2022/01/20 02:06:50;;;;;;;185.02;94.05;;;-3.80;99.90;;;;;;5081208;28;20070;-79
2022/01/20 02:09:34;;;;;;;173.20;91.07;;;-3.80;99.90;;;;;;5078644;28;20083;-80
2022/01/20 02:17:59;;;;;;;180.00;94.47;;;-4.00;99.90;;;;;;5080152;28;20071;-79
2022/01/20 02:20:30;;;;;;;177.40;92.63;;;-4.10;99.90;;;;;;5090960;28;20049;-80
2022/01/20 02:23:00;;;;;;;176.55;90.38;;;-4.10;99.90;;;;;;5090317;28;20051;-77
2022/01/20 02:25:37;;;;;;;167.52;84.70;;;-4.00;99.90;;;;;;5093155;28;20044;-81
2022/01/20 02:28:06;;;;;;;152.27;77.32;;;-3.90;99.90;;;;;;5092108;28;20064;-81
2022/01/20 02:30:35;;;;;;;151.93;78.40;;;-3.80;99.90;;;;;;5086354;28;20052;-79
2022/01/20 02:33:05;;;;;;;159.23;81.78;;;-3.80;99.90;;;;;;5074135;28;20052;-77
2022/01/20 02:35:37;;;;;;;146.63;74.10;;;-3.80;99.90;;;;;;5069066;28;20103;-80
2022/01/20 02:38:16;;;;;;;154.43;76.78;;;-4.00;99.90;;;;;;5049560;28;20041;-81
2022/01/20 02:46:14;;;;;;;191.68;99.80;;;-4.10;99.90;;;;;;5066430;28;19917;-80
2022/01/20 02:48:42;;;;;;;176.88;92.35;;;-4.10;99.90;;;;;;5041253;28;20045;-80
2022/01/20 02:51:12;;;;;;;172.27;87.00;;;-4.10;99.90;;;;;;5080607;28;20115;-80
2022/01/20 02:53:41;;;;;;;160.35;83.38;;;-4.10;99.90;;;;;;5078627;28;20056;-79
2022/01/20 02:56:08;;;;;;;156.55;80.90;;;-4.10;99.90;;;;;;5065415;28;20045;-81
2022/01/20 02:58:35;;;;;;;161.65;79.40;;;-4.10;99.90;;;;;;5059254;28;20040;-79
2022/01/20 03:01:03;;;;;;;156.95;79.75;;;-4.10;99.90;;;;;;5055070;28;20108;-80
2022/01/20 03:03:31;;;;;;;157.25;81.60;;;-4.10;99.90;;;;;;5068233;28;20048;-78
2022/01/20 03:05:59;;;;;;;150.68;79.13;;;-4.00;99.90;;;;;;5078450;28;20144;-80
2022/01/20 03:08:28;;;;;;;171.50;89.03;;;-4.00;99.90;;;;;;5079694;28;20040;-81
2022/01/20 03:10:55;;;;;;;198.07;99.32;;;-4.10;99.90;;;;;;5080964;28;20142;-80
2022/01/20 03:13:24;;;;;;;148.73;76.05;;;-4.20;99.90;;;;;;5080895;28;20067;-81
2022/01/20 03:15:51;;;;;;;159.75;79.55;;;-4.10;99.90;;;;;;5079749;28;20048;-81
2022/01/20 03:18:19;;;;;;;163.65;83.78;;;-4.10;99.90;;;;;;5080013;28;20130;-79
2022/01/20 03:20:46;;;;;;;158.98;80.13;;;-4.10;99.90;;;;;;5079697;28;20044;-79
2022/01/20 03:23:14;;;;;;;149.68;76.05;;;-4.10;99.90;;;;;;5080290;28;20052;-80
2022/01/20 03:25:43;;;;;;;147.85;72.95;;;-4.20;99.90;;;;;;5078714;28;20407;-81
2022/01/20 03:28:11;;;;;;;120.57;61.92;;;-4.20;99.90;;;;;;5078762;28;20075;-81
2022/01/20 03:30:38;;;;;;;101.72;49.13;;;-4.20;99.90;;;;;;5078876;28;20152;-80
2022/01/20 03:33:06;;;;;;;120.50;60.13;;;-4.10;99.90;;;;;;5079346;28;20445;-81
2022/01/20 03:35:35;;;;;;;123.68;61.70;;;-4.20;99.90;;;;;;5079605;28;20052;-79
2022/01/20 03:38:22;;;;;;;133.52;64.82;;;-4.20;99.90;;;;;;5098185;28;20055;-81
2022/01/20 03:40:52;;;;;;;135.70;67.93;;;-4.20;99.90;;;;;;5079127;28;20048;-81
2022/01/20 03:43:20;;;;;;;137.07;71.53;;;-4.20;99.90;;;;;;5079614;28;20068;-80
2022/01/20 03:45:50;;;;;;;144.23;74.70;;;-4.30;99.90;;;;;;5079077;28;20048;-81
2022/01/20 03:48:18;;;;;;;142.65;71.68;;;-4.20;99.90;;;;;;5098378;28;20044;-81
2022/01/20 03:51:02;;;;;;;141.60;72.82;;;-4.30;99.90;;;;;;5077046;28;20052;-82
2022/01/20 03:53:38;;;;;;;143.70;73.93;;;-4.30;99.90;;;;;;5076436;28;20049;-80
2022/01/20 03:56:09;;;;;;;164.18;82.55;;;-4.30;99.90;;;;;;5079377;28;20043;-81
2022/01/20 03:58:52;;;;;;;150.32;75.05;;;-4.40;99.90;;;;;;5079425;28;20043;-81
2022/01/20 04:01:20;;;;;;;154.23;78.20;;;-4.40;99.90;;;;;;5079897;28;20139;-80
2022/01/20 04:04:10;;;;;;;146.07;72.13;;;-4.40;99.90;;;;;;5096028;28;20052;-81
2022/01/20 04:06:51;;;;;;;141.60;71.45;;;-4.30;99.90;;;;;;5079039;28;20044;-81
2022/01/20 04:09:19;;;;;;;145.52;72.07;;;-4.20;99.90;;;;;;5096617;28;20048;-80
2022/01/20 04:11:49;;;;;;;142.73;73.50;;;-4.20;99.90;;;;;;5079252;28;20044;-80
2022/01/20 04:14:16;;;;;;;142.75;72.78;;;-4.20;99.90;;;;;;5079433;28;20050;-81
2022/01/20 04:17:02;;;;;;;131.45;63.15;;;-4.20;99.90;;;;;;5078308;28;20044;-81
2022/01/20 04:19:30;;;;;;;134.77;65.15;;;-4.20;99.90;;;;;;5079728;28;20043;-81
2022/01/20 04:21:59;;;;;;;135.77;65.78;;;-4.30;99.90;;;;;;5078817;28;20064;-80
2022/01/20 04:24:27;;;;;;;132.60;65.20;;;-4.30;99.90;;;;;;5096711;28;20048;-79
2022/01/20 04:26:56;;;;;;;148.77;79.10;;;-4.30;99.90;;;;;;5083764;28;20043;-78
2022/01/20 04:29:24;;;;;;;156.20;79.60;;;-4.40;99.90;;;;;;5101029;28;20037;-77
2022/01/20 04:31:51;;;;;;;172.63;90.65;;;-4.40;99.90;;;;;;5093711;28;20040;-77
2022/01/20 04:34:20;;;;;;;191.20;99.90;;;-4.40;99.90;;;;;;5086332;28;20040;-79
2022/01/20 04:36:50;;;;;;;216.40;106.10;;;-4.40;99.90;;;;;;5096768;28;20036;-81
2022/01/20 04:39:22;;;;;;;163.68;83.47;;;-4.50;99.90;;;;;;5078402;28;20071;-79
2022/01/20 04:41:51;;;;;;;153.25;80.15;;;-4.50;99.90;;;;;;5077925;28;20082;-77
2022/01/20 04:44:32;;;;;;;163.10;82.95;;;-4.40;99.90;;;;;;5078090;28;20143;-81
2022/01/20 04:47:10;;;;;;;144.63;76.18;;;-4.30;99.90;;;;;;5075605;28;20124;-79
2022/01/20 04:57:49;;;;;;;114.68;59.88;;;-4.30;99.90;;;;;;5060010;28;20052;-79
2022/01/20 05:00:18;;;;;;;117.93;61.88;;;-4.20;99.90;;;;;;5091980;28;20040;-79
2022/01/20 05:03:05;;;;;;;130.20;65.15;;;-4.30;99.90;;;;;;5111942;28;20054;-80
2022/01/20 05:05:35;;;;;;;164.18;84.68;;;-4.40;99.90;;;;;;5094910;28;20086;-80
2022/01/20 05:08:10;;;;;;;177.73;88.75;;;-4.40;99.90;;;;;;5093339;28;20055;-80
2022/01/20 05:10:39;;;;;;;197.40;97.30;;;-4.40;99.90;;;;;;5091751;28;20063;-79
2022/01/20 05:13:12;;;;;;;155.18;77.32;;;-4.40;99.90;;;;;;5093167;28;20071;-80
2022/01/20 05:15:42;;;;;;;161.52;79.93;;;-4.40;99.90;;;;;;5079384;28;20040;-80
2022/01/20 05:18:09;;;;;;;146.02;71.78;;;-4.40;99.90;;;;;;5078724;28;20072;-79
2022/01/20 05:20:37;;;;;;;134.43;67.18;;;-4.30;99.90;;;;;;5079259;28;20090;-79
2022/01/20 05:23:05;;;;;;;116.40;62.15;;;-4.40;99.90;;;;;;5077882;28;20056;-79
2022/01/20 05:25:32;;;;;;;112.43;55.28;;;-4.40;99.90;;;;;;5094890;28;20097;-79
2022/01/20 05:28:00;;;;;;;107.57;53.75;;;-4.30;99.90;;;;;;5075959;28;20070;-79
2022/01/20 05:30:28;;;;;;;117.78;55.67;;;-4.30;99.90;;;;;;5093733;28;20044;-80
2022/01/20 05:33:21;;;;;;;147.07;71.68;;;-4.30;99.90;;;;;;5073355;28;20145;-80
2022/01/20 05:35:49;;;;;;;148.57;75.00;;;-4.30;99.90;;;;;;5079894;28;20044;-80
2022/01/20 05:38:18;;;;;;;149.57;74.82;;;-4.30;99.90;;;;;;5079136;28;20047;-78
2022/01/20 05:40:49;;;;;;;158.80;80.55;;;-4.30;99.90;;;;;;5103402;28;20054;-77
2022/01/20 05:43:17;;;;;;;144.75;73.68;;;-4.30;99.90;;;;;;5081389;28;20449;-79
2022/01/20 05:45:48;;;;;;;141.43;72.88;;;-4.30;99.90;;;;;;5093791;28;20449;-80
2022/01/20 05:48:20;;;;;;;130.30;67.20;;;-4.30;99.90;;;;;;5074688;28;20051;-80
2022/01/20 05:51:19;;;;;;;148.65;71.97;;;-4.30;99.90;;;;;;5073809;28;20044;-80
2022/01/20 05:53:47;;;;;;;133.63;70.35;;;-4.40;99.90;;;;;;5076326;28;20160;-79
2022/01/20 05:56:14;;;;;;;140.98;72.57;;;-4.40;99.90;;;;;;5077477;28;20132;-80
2022/01/20 05:58:42;;;;;;;151.23;76.82;;;-4.40;99.90;;;;;;5078391;28;20028;-78
2022/01/20 06:01:13;;;;;;;161.45;80.88;;;-4.30;99.90;;;;;;5077600;28;20041;-81
2022/01/20 06:03:41;;;;;;;184.57;90.47;;;-4.30;99.90;;;;;;5079207;28;20044;-78
2022/01/20 06:06:14;;;;;;;210.68;101.20;;;-4.30;99.90;;;;;;5083325;28;20051;-78
2022/01/20 06:08:44;;;;;;;235.82;109.95;;;-4.40;99.90;;;;;;5093109;28;20079;-78
2022/01/20 06:11:13;;;;;;;249.52;117.43;;;-4.40;99.90;;;;;;5082923;28;20054;-80
2022/01/20 06:13:41;;;;;;;245.85;117.10;;;-4.40;99.90;;;;;;5076760;28;20044;-79
2022/01/20 06:16:09;;;;;;;262.05;127.45;;;-4.40;99.90;;;;;;5094834;28;20048;-79
2022/01/20 06:18:37;;;;;;;289.20;136.98;;;-4.30;99.90;;;;;;5077141;28;20507;-79
2022/01/20 06:21:04;;;;;;;287.77;136.27;;;-4.20;99.90;;;;;;5096348;28;20036;-80
2022/01/20 06:23:32;;;;;;;342.30;159.65;;;-4.30;99.90;;;;;;5094233;28;20136;-79
2022/01/20 06:26:05;;;;;;;285.88;138.93;;;-4.30;99.90;;;;;;5095770;28;20048;-82
2022/01/20 06:28:33;;;;;;;308.90;146.82;;;-4.20;99.90;;;;;;5093244;28;20457;-81
2022/01/20 06:31:02;;;;;;;279.75;128.93;;;-4.30;99.90;;;;;;5092763;28;20044;-81
2022/01/20 06:33:30;;;;;;;346.15;185.95;;;-4.20;99.90;;;;;;5097268;28;20079;-82
2022/01/20 06:35:59;;;;;;;542.35;270.23;;;-4.20;99.90;;;;;;5097662;28;20050;-81
2022/01/20 06:38:27;;;;;;;320.92;156.95;;;-4.10;99.90;;;;;;5096793;28;20051;-82
2022/01/20 06:40:57;;;;;;;322.50;157.48;;;-4.10;99.90;;;;;;5079081;28;20097;-81
2022/01/20 06:43:28;;;;;;;323.10;160.45;;;-4.10;99.90;;;;;;5096288;28;20059;-82
2022/01/20 06:45:56;;;;;;;337.80;172.68;;;-4.00;99.90;;;;;;5099175;28;20537;-81
2022/01/20 06:48:42;;;;;;;335.67;166.27;;;-4.00;99.90;;;;;;5100529;28;20059;-83
2022/01/20 06:51:30;;;;;;;371.85;175.13;;;-4.00;99.90;;;;;;5100035;28;20052;-81
2022/01/20 06:53:59;;;;;;;356.77;169.43;;;-4.00;99.90;;;;;;5083429;28;20051;-79
2022/01/20 06:56:26;;;;;;;322.65;150.63;;;-3.90;99.90;;;;;;5081165;28;20051;-81
2022/01/20 06:58:56;;;;;;;333.48;151.38;;;-3.80;99.90;;;;;;5098363;28;20086;-83
2022/01/20 07:01:24;;;;;;;320.75;147.60;;;-3.50;99.90;;;;;;5082907;28;20044;-82
2022/01/20 07:03:53;;;;;;;252.93;118.55;;;-3.30;99.90;;;;;;5081458;28;20040;-80
2022/01/20 07:06:22;;;;;;;261.25;118.10;;;-3.00;99.90;;;;;;5092431;28;20487;-82
2022/01/20 07:09:09;;;;;;;243.40;112.53;;;-2.80;99.90;;;;;;5079846;28;20051;-84
2022/01/20 07:11:37;;;;;;;305.17;133.18;;;-2.60;99.90;;;;;;5095784;28;20044;-80
2022/01/20 07:14:07;;;;;;;284.20;137.23;;;-2.40;99.90;;;;;;5081668;28;20073;-79
2022/01/20 07:16:36;;;;;;;284.33;136.30;;;-2.40;99.90;;;;;;5081470;28;20051;-79
2022/01/20 07:19:04;;;;;;;296.92;138.27;;;-2.40;99.90;;;;;;5063325;28;20051;-81
2022/01/20 07:21:33;;;;;;;285.58;141.45;;;-2.50;99.90;;;;;;5080898;28;20079;-81
2022/01/20 07:24:04;;;;;;;303.00;147.18;;;-2.40;99.90;;;;;;5108412;28;20055;-80
2022/01/20 07:26:32;;;;;;;300.42;139.95;;;-2.30;99.90;;;;;;5082160;28;20568;-82
2022/01/20 07:29:11;;;;;;;299.75;142.15;;;-2.20;99.90;;;;;;5097323;28;20044;-82
2022/01/20 07:31:39;;;;;;;253.25;121.40;;;-2.10;99.90;;;;;;5081131;28;20048;-81
2022/01/20 07:34:06;;;;;;;221.00;102.65;;;-1.90;99.90;;;;;;5080088;28;20131;-79
2022/01/20 07:36:34;;;;;;;295.77;138.70;;;-1.80;99.90;;;;;;5097171;28;20181;-81
2022/01/20 07:39:01;;;;;;;289.42;143.32;;;-1.80;99.90;;;;;;5080678;28;20067;-80
2022/01/20 07:41:29;;;;;;;285.65;141.80;;;-1.60;99.90;;;;;;5082129;28;20051;-80
2022/01/20 07:43:57;;;;;;;327.17;155.23;;;-1.40;99.90;;;;;;5102236;28;20047;-82
2022/01/20 07:47:05;;;;;;;277.73;134.70;;;-1.40;99.90;;;;;;5064023;28;20135;-80
2022/01/20 07:49:32;;;;;;;244.60;124.50;;;-1.30;99.90;;;;;;5082658;28;20475;-82
2022/01/20 07:52:00;;;;;;;243.43;124.00;;;-1.10;99.90;;;;;;5102928;28;20470;-79
2022/01/20 07:54:27;;;;;;;281.45;139.55;;;-0.80;99.90;;;;;;5101085;28;20514;-79
2022/01/20 07:56:55;;;;;;;335.42;166.25;;;-0.60;99.90;;;;;;5084096;28;20071;-80
2022/01/20 07:59:24;;;;;;;313.77;155.45;;;-0.40;99.90;;;;;;5085622;28;20074;-79
2022/01/20 08:01:52;;;;;;;317.30;162.48;;;-0.30;99.90;;;;;;5086050;28;20138;-81
2022/01/20 08:04:21;;;;;;;322.38;162.55;;;-0.20;99.90;;;;;;5084200;28;20048;-79
2022/01/20 08:06:49;;;;;;;311.73;159.40;;;-0.10;99.90;;;;;;5102614;28;20040;-83
2022/01/20 08:09:22;;;;;;;314.60;157.63;;;0.10;99.90;;;;;;5083982;28;20048;-79
2022/01/20 08:12:11;;;;;;;295.42;150.00;;;0.20;99.90;;;;;;5100499;28;20071;-82
2022/01/20 08:14:44;;;;;;;304.73;148.50;;;0.20;99.90;;;;;;5083211;28;20055;-80
2022/01/20 08:17:17;;;;;;;308.27;150.90;;;0.40;99.90;;;;;;5081621;28;20051;-83
2022/01/20 08:19:51;;;;;;;313.08;156.75;;;0.50;99.90;;;;;;5080830;28;20044;-82
2022/01/20 08:22:19;;;;;;;290.02;146.85;;;0.80;99.90;;;;;;5082012;28;20059;-80
2022/01/20 08:24:51;;;;;;;274.20;140.57;;;1.00;99.90;;;;;;5085196;28;20066;-80
2022/01/20 08:27:19;;;;;;;244.88;125.57;;;1.10;99.90;;;;;;5102626;28;20457;-81
2022/01/20 08:29:47;;;;;;;254.43;128.77;;;1.20;99.90;;;;;;5099332;28;20048;-80
2022/01/20 08:32:22;;;;;;;248.50;130.73;;;1.30;99.90;;;;;;5099094;28;20056;-80
2022/01/20 08:35:04;;;;;;;225.52;116.15;;;1.60;99.90;;;;;;5081486;28;20075;-83
2022/01/20 08:37:52;;;;;;;242.77;126.72;;;1.80;99.90;;;;;;5080667;28;20060;-80
2022/01/20 08:40:22;;;;;;;221.10;114.43;;;2.00;99.90;;;;;;5098485;28;20040;-81
2022/01/20 08:42:53;;;;;;;229.45;116.60;;;2.10;99.90;;;;;;5090001;28;20060;-80
2022/01/20 08:45:25;;;;;;;225.90;114.93;;;2.20;99.90;;;;;;5097450;28;20107;-83
2022/01/20 08:47:54;;;;;;;229.15;116.30;;;2.30;99.90;;;;;;5089321;28;20071;-81
2022/01/20 08:50:28;;;;;;;258.52;127.22;;;2.40;99.90;;;;;;5085566;28;20040;-80
2022/01/20 08:52:56;;;;;;;247.88;127.88;;;2.40;99.90;;;;;;5105973;28;20048;-81
2022/01/20 08:55:26;;;;;;;242.27;127.88;;;2.50;99.90;;;;;;5085887;28;20101;-81
2022/01/20 08:57:55;;;;;;;216.02;108.05;;;2.70;99.90;;;;;;5086612;28;20044;-79
2022/01/20 09:00:26;;;;;;;199.98;104.05;;;3.00;99.90;;;;;;5106964;28;20044;-80
2022/01/20 09:03:04;;;;;;;234.77;119.32;;;3.10;99.90;;;;;;5102341;28;20071;-80
2022/01/20 09:05:34;;;;;;;263.48;130.90;;;3.20;99.90;;;;;;5083774;28;20052;-79
2022/01/20 09:08:12;;;;;;;238.32;126.05;;;3.10;99.90;;;;;;5081335;28;20051;-79
2022/01/20 09:10:51;;;;;;;240.65;124.88;;;3.30;99.90;;;;;;5059674;28;20048;-80
2022/01/20 09:16:06;;;;;;;233.07;126.72;;;3.80;99.90;;;;;;5081545;28;20101;-82
2022/01/20 09:18:45;;;;;;;237.77;125.38;;;4.20;99.90;;;;;;5065112;28;20159;-83
2022/01/20 09:21:20;;;;;;;254.43;131.70;;;4.50;99.90;;;;;;5081239;28;20415;-80
2022/01/20 09:23:49;;;;;;;245.05;134.32;;;4.70;99.90;;;;;;5082837;28;20059;-82
2022/01/20 09:26:17;;;;;;;244.85;129.95;;;5.10;99.90;;;;;;5081960;28;20494;-81
2022/01/20 09:28:45;;;;;;;239.07;132.23;;;5.10;99.90;;;;;;5101396;28;20062;-82
2022/01/20 09:31:21;;;;;;;234.48;127.50;;;5.20;99.90;;;;;;5100436;28;20089;-81
2022/01/20 09:33:48;;;;;;;220.00;117.45;;;5.10;99.90;;;;;;5081990;28;20483;-81
2022/01/20 09:36:20;;;;;;;206.05;109.38;;;5.10;99.90;;;;;;5081284;28;20056;-82
2022/01/20 09:38:47;;;;;;;231.52;120.70;;;5.00;99.90;;;;;;5100060;28;20126;-80
2022/01/20 09:41:25;;;;;;;203.85;111.50;;;5.10;99.90;;;;;;5100634;28;20518;-80
2022/01/20 09:43:55;;;;;;;216.95;114.85;;;5.20;99.90;;;;;;5101698;28;20050;-82
2022/01/20 09:46:23;;;;;;;205.88;109.82;;;5.30;99.90;;;;;;5080954;28;20051;-83
2022/01/20 09:49:02;;;;;;;203.63;111.40;;;5.40;99.90;;;;;;5081264;28;20040;-81
2022/01/20 09:51:39;;;;;;;210.13;112.93;;;5.50;99.90;;;;;;5079899;28;20036;-85
2022/01/20 09:54:14;;;;;;;206.48;109.70;;;5.50;99.90;;;;;;5097650;28;20564;-79
2022/01/20 09:57:02;;;;;;;215.23;114.13;;;5.80;99.90;;;;;;5075262;28;20056;-83
2022/01/20 09:59:31;;;;;;;209.88;109.18;;;5.90;99.90;;;;;;5087622;28;20048;-79
2022/01/20 10:01:59;;;;;;;219.73;116.07;;;6.10;99.90;;;;;;5086493;28;20071;-79
2022/01/20 10:04:30;;;;;;;216.88;114.95;;;6.20;99.90;;;;;;5086249;28;20040;-79
2022/01/20 10:07:02;;;;;;;222.40;119.00;;;6.40;99.90;;;;;;5100186;28;20569;-81
2022/01/20 10:09:37;;;;;;;240.52;123.38;;;6.60;99.90;;;;;;5083555;28;20048;-81
2022/01/20 10:12:31;;;;;;;238.88;129.45;;;6.60;99.90;;;;;;5081885;28;20086;-81
2022/01/20 10:15:10;;;;;;;232.32;128.75;;;6.70;99.90;;;;;;5084050;28;20048;-80
2022/01/20 10:18:08;;;;;;;234.02;127.53;;;6.80;99.90;;;;;;5065647;28;20053;-79
2022/01/20 10:20:51;;;;;;;241.68;129.15;;;7.00;99.90;;;;;;5084803;28;20067;-81
2022/01/20 10:23:40;;;;;;;255.77;137.15;;;7.10;99.90;;;;;;5101990;28;20048;-81
2022/01/20 10:26:26;;;;;;;255.63;136.73;;;7.10;99.90;;;;;;5101438;28;20571;-81
2022/01/20 10:29:03;;;;;;;244.38;135.77;;;7.30;99.90;;;;;;5100261;28;20458;-81
2022/01/20 10:31:35;;;;;;;245.20;131.75;;;7.40;99.90;;;;;;5084011;28;20062;-81
2022/01/20 10:34:04;;;;;;;240.10;129.43;;;7.60;99.90;;;;;;5082783;28;20048;-80
2022/01/20 10:36:38;;;;;;;229.40;126.15;;;7.70;99.90;;;;;;5101604;28;20043;-80
2022/01/20 10:39:31;;;;;;;242.82;133.50;;;7.80;99.90;;;;;;5103575;28;20059;-78
2022/01/20 10:42:01;;;;;;;228.45;130.63;;;7.90;99.90;;;;;;5086110;28;20040;-79
2022/01/20 10:44:29;;;;;;;232.45;131.40;;;7.90;99.90;;;;;;5087558;28;20050;-81
2022/01/20 10:47:06;;;;;;;240.68;134.15;;;8.00;99.90;;;;;;5106909;28;20077;-81
2022/01/20 10:49:36;;;;;;;250.57;134.88;;;8.10;99.90;;;;;;5106469;28;20050;-80
2022/01/20 10:52:06;;;;;;;240.07;134.10;;;8.10;99.90;;;;;;5087719;28;20044;-80
2022/01/20 10:54:41;;;;;;;227.48;130.52;;;8.10;99.90;;;;;;5089408;28;20507;-80
2022/01/20 10:57:12;;;;;;;241.80;134.10;;;8.10;99.90;;;;;;5088045;28;20051;-79
2022/01/20 10:59:52;;;;;;;231.48;132.30;;;8.30;99.90;;;;;;5089955;28;20048;-80
2022/01/20 11:02:27;;;;;;;236.75;130.77;;;8.40;99.90;;;;;;5106013;28;20044;-80
2022/01/20 11:04:55;;;;;;;240.82;135.55;;;8.50;99.90;;;;;;5106705;28;20048;-82
2022/01/20 11:07:23;;;;;;;263.45;144.23;;;8.70;99.90;;;;;;5106705;28;20048;-80
2022/01/20 11:09:59;;;;;;;253.43;136.52;;;8.80;99.90;;;;;;5106970;28;20062;-77
2022/01/20 11:12:44;;;;;;;257.77;142.38;;;8.90;99.90;;;;;;5073584;28;20029;-78
2022/01/20 11:15:40;;;;;;;250.80;137.40;;;9.00;99.90;;;;;;5073275;28;20045;-77
2022/01/20 11:18:10;;;;;;;253.88;143.13;;;8.80;99.90;;;;;;5074210;28;20041;-78
2022/01/20 11:20:41;;;;;;;261.25;143.00;;;9.00;99.90;;;;;;5068266;28;20113;-79
2022/01/20 11:23:11;;;;;;;260.42;150.80;;;9.10;99.90;;;;;;5062553;28;20056;-80
2022/01/20 11:26:06;;;;;;;275.85;167.80;;;9.10;99.90;;;;;;5062385;28;20048;-80
2022/01/20 11:28:58;;;;;;;285.75;164.32;;;9.30;99.90;;;;;;5063350;28;20056;-81
2022/01/20 11:31:41;;;;;;;292.77;171.90;;;9.30;99.90;;;;;;5066810;28;20048;-80
2022/01/20 11:34:23;;;;;;;257.92;144.43;;;9.40;99.90;;;;;;5064815;28;20041;-79
2022/01/20 11:36:50;;;;;;;276.60;152.48;;;9.50;99.90;;;;;;5066694;28;20060;-78
2022/01/20 11:39:21;;;;;;;261.95;149.65;;;9.50;99.90;;;;;;5069748;28;20052;-80
2022/01/20 11:41:51;;;;;;;266.25;151.45;;;9.40;99.90;;;;;;5067391;28;20059;-80
2022/01/20 11:44:20;;;;;;;258.00;145.65;;;9.60;99.90;;;;;;5068492;28;20060;-79
2022/01/20 11:46:53;;;;;;;252.50;141.60;;;9.80;99.90;;;;;;5068870;28;20045;-78
2022/01/20 11:49:22;;;;;;;256.95;142.73;;;9.60;99.90;;;;;;5070908;28;20105;-80
2022/01/20 11:51:52;;;;;;;268.13;144.00;;;9.70;99.90;;;;;;5067284;28;20053;-80
2022/01/20 11:54:31;;;;;;;272.13;148.75;;;9.80;99.90;;;;;;5100234;28;20045;-81
2022/01/20 11:57:09;;;;;;;308.85;162.27;;;9.80;99.90;;;;;;5067887;28;20068;-80
2022/01/20 11:59:38;;;;;;;283.63;162.57;;;9.80;99.90;;;;;;5067520;28;20048;-79
2022/01/20 12:02:06;;;;;;;300.13;163.13;;;9.60;99.90;;;;;;5067794;28;20055;-80
2022/01/20 12:04:35;;;;;;;267.00;147.05;;;9.40;99.90;;;;;;5065372;28;20161;-80
2022/01/20 12:07:06;;;;;;;265.42;140.43;;;9.40;99.90;;;;;;5065559;28;20048;-79
2022/01/20 12:09:35;;;;;;;251.68;142.73;;;9.20;99.90;;;;;;5090004;28;20084;-78
2022/01/20 12:12:04;;;;;;;267.35;143.88;;;9.10;99.90;;;;;;5087902;28;20513;-80
2022/01/20 12:14:38;;;;;;;270.17;144.73;;;9.20;99.90;;;;;;5103641;28;20051;-81
2022/01/20 12:17:08;;;;;;;264.75;145.18;;;9.20;99.90;;;;;;5103171;28;20483;-81
2022/01/20 12:19:36;;;;;;;248.55;140.35;;;9.30;99.90;;;;;;5086674;28;20087;-79
2022/01/20 12:22:05;;;;;;;248.35;134.73;;;9.30;99.90;;;;;;5105887;28;20054;-79
2022/01/20 12:24:33;;;;;;;261.98;141.60;;;9.30;99.90;;;;;;5096881;28;20032;-81
2022/01/20 12:27:01;;;;;;;277.52;154.25;;;9.20;99.90;;;;;;5115120;28;20048;-81
2022/01/20 12:29:39;;;;;;;272.15;153.68;;;9.20;99.90;;;;;;5114763;28;20047;-82
2022/01/20 12:32:13;;;;;;;286.90;159.88;;;9.10;99.90;;;;;;5115614;28;20040;-82
2022/01/20 12:34:42;;;;;;;292.77;162.95;;;9.20;99.90;;;;;;5115455;28;20048;-82
2022/01/20 12:37:10;;;;;;;283.40;157.38;;;9.20;99.90;;;;;;5115946;28;20052;-81
2022/01/20 12:39:39;;;;;;;284.90;155.95;;;9.20;99.90;;;;;;5096115;28;20048;-82
2022/01/20 12:42:08;;;;;;;278.65;154.50;;;9.20;99.90;;;;;;5106731;28;20068;-83
2022/01/20 12:44:48;;;;;;;282.20;158.68;;;9.10;99.90;;;;;;5105911;28;20495;-82
2022/01/20 12:47:17;;;;;;;324.38;180.52;;;9.10;99.90;;;;;;5102874;28;20074;-83
2022/01/20 12:49:45;;;;;;;356.60;205.82;;;9.10;99.90;;;;;;5104723;28;20044;-83
2022/01/20 12:52:13;;;;;;;408.25;236.45;;;9.00;99.90;;;;;;5102317;28;20119;-83
2022/01/20 12:54:40;;;;;;;377.02;219.35;;;8.90;99.90;;;;;;5100583;28;20067;-83
2022/01/20 12:57:11;;;;;;;390.60;229.85;;;8.90;99.90;;;;;;5082238;28;20052;-83
2022/01/20 12:59:42;;;;;;;393.48;234.02;;;8.90;99.90;;;;;;5099719;28;20097;-82
2022/01/20 13:02:19;;;;;;;386.98;232.30;;;9.00;99.90;;;;;;5083615;28;20513;-80
2022/01/20 13:04:47;;;;;;;396.85;236.80;;;8.80;99.90;;;;;;5083881;28;20048;-79
2022/01/20 13:07:18;;;;;;;419.95;255.63;;;8.80;99.90;;;;;;5102312;28;20122;-80
2022/01/20 13:09:49;;;;;;;417.77;249.15;;;8.70;99.90;;;;;;5102812;28;20144;-81
2022/01/20 13:12:18;;;;;;;404.60;242.23;;;8.90;99.90;;;;;;5093925;22;20080;-78
2022/01/20 13:14:48;;;;;;;399.95;244.80;;;8.90;99.90;;;;;;5066221;28;20075;-78
2022/01/20 13:17:23;;;;;;;400.95;241.77;;;8.90;99.90;;;;;;5063398;28;20108;-77
2022/01/20 13:19:54;;;;;;;410.35;255.55;;;8.90;99.90;;;;;;5052700;28;20485;-77
2022/01/20 13:22:27;;;;;;;349.50;215.38;;;8.80;99.90;;;;;;5052997;28;20053;-79
2022/01/20 13:25:04;;;;;;;364.10;217.82;;;8.80;99.90;;;;;;5063854;28;20519;-78